Airfield :
LOGIN :

Register | Disclaimer

   EN    FR    IT 

 










Legend :    VFR   Marginal VFR   IFR   Intensive IFR   Very Intensive IFR
Visi :
Ceiling :
>= 8 km
>= 3000ft
5 to 8 km
1000 to 3000 ft
1500m to 5 km
500 to 1000 ft
800 to 1500m
200 to 500 ft
< 800m
< 200 ft
Symbols :   Thunderstorms  Fog  Heavy snow  Heavy precipitations  Wind > 20 kt
SIGMETs :     Misc.  Thunderstorms  Icing  Turbulence  Mountain Waves  Volcanic Ashes






- Airport Elevation : 13 ft
- IATA code : CEQ


LFMD - Cannes Mandelieu

CURRENT METAR :
  • 011400Z AUTO 18007KT 9999 BKN046 13/06 Q1015 NOSIG

EXPIRED METARs :
  • 011330Z AUTO 18006KT 9999 BKN049 14/07 Q1015 NOSIG
  • 011300Z AUTO 18007KT 9999 FEW052 14/07 Q1016 NOSIG
  • 011230Z AUTO 17007KT 130V190 9999 BKN052 14/06 Q1016 NOSIG
  • 011200Z AUTO 18006KT 9999 FEW042 13/05 Q1016 TEMPO FEW040TCU
  • 011130Z AUTO 16004KT 9999 BKN041 14/05 Q1016 TEMPO FEW040TCU
  • 011100Z AUTO 18003KT 130V240 CAVOK 15/06 Q1016 TEMPO FEW040TCU

TAF TAF LFMD
Valid from the 01 at 09:00 until the 02 at 09:00 UTC


010800Z 0109/0209 36005KT CAVOK
PROB40
TEMPO 0109/0113 FEW040TCU
TEMPO 0112/0118 25007KT
ATIS : +33 4 92 19 94 92



MET'MAP, your aeronautical weather chart ! - Copyright ORBIFLY December 2007 - Disclaimer

ORBIFLY MET'MAP TEAM :

Programming & Development : Alexandra Zaïnal
Original concept : Baudouin d'Aumeries
Technical & hardware support : Manuel Goepfert
Assistance : Marc-Olivier Méhu




SOURCES & CREDITS :

   NOAA